sensor_id;sensor_type;location;lat;lon;timestamp;temperature;humidity
44671;DHT22;48397;53.016;-2.260;2023-03-01T00:01:41;5.60;99.90
44671;DHT22;48397;53.016;-2.260;2023-03-01T00:04:08;5.60;99.90
44671;DHT22;48397;53.016;-2.260;2023-03-01T00:06:36;5.70;99.90
44671;DHT22;48397;53.016;-2.260;2023-03-01T00:09:05;5.80;99.90
44671;DHT22;48397;53.016;-2.260;2023-03-01T00:11:34;5.80;99.90
44671;DHT22;48397;53.016;-2.260;2023-03-01T00:14:02;5.90;99.90
44671;DHT22;48397;53.016;-2.260;2023-03-01T00:16:35;5.90;99.90
44671;DHT22;48397;53.016;-2.260;2023-03-01T00:21:31;6.00;99.90
44671;DHT22;48397;53.016;-2.260;2023-03-01T00:24:02;6.00;99.90
44671;DHT22;48397;53.016;-2.260;2023-03-01T00:26:31;6.10;99.90
44671;DHT22;48397;53.016;-2.260;2023-03-01T00:29:00;6.30;99.90
44671;DHT22;48397;53.016;-2.260;2023-03-01T00:31:31;6.30;99.90
44671;DHT22;48397;53.016;-2.260;2023-03-01T00:34:02;6.30;99.90
44671;DHT22;48397;53.016;-2.260;2023-03-01T00:36:34;6.30;99.90
44671;DHT22;48397;53.016;-2.260;2023-03-01T00:39:04;6.30;99.90
44671;DHT22;48397;53.016;-2.260;2023-03-01T00:41:31;6.30;99.90
44671;DHT22;48397;53.016;-2.260;2023-03-01T00:44:03;6.30;99.90
44671;DHT22;48397;53.016;-2.260;2023-03-01T00:46:35;6.30;99.90
44671;DHT22;48397;53.016;-2.260;2023-03-01T00:49:04;6.30;99.90
44671;DHT22;48397;53.016;-2.260;2023-03-01T00:51:32;6.30;99.90
44671;DHT22;48397;53.016;-2.260;2023-03-01T00:54:02;6.30;99.90
44671;DHT22;48397;53.016;-2.260;2023-03-01T00:56:30;6.40;99.90
44671;DHT22;48397;53.016;-2.260;2023-03-01T00:58:59;6.30;99.90
44671;DHT22;48397;53.016;-2.260;2023-03-01T01:01:28;6.30;99.90
44671;DHT22;48397;53.016;-2.260;2023-03-01T01:04:00;6.30;99.90
44671;DHT22;48397;53.016;-2.260;2023-03-01T01:06:31;6.30;99.90
44671;DHT22;48397;53.016;-2.260;2023-03-01T01:09:00;6.30;99.90
44671;DHT22;48397;53.016;-2.260;2023-03-01T01:11:29;6.30;99.90
44671;DHT22;48397;53.016;-2.260;2023-03-01T01:13:57;6.30;99.90
44671;DHT22;48397;53.016;-2.260;2023-03-01T01:16:27;6.30;99.90
44671;DHT22;48397;53.016;-2.260;2023-03-01T01:18:56;6.20;99.90
44671;DHT22;48397;53.016;-2.260;2023-03-01T01:21:25;6.30;99.90
44671;DHT22;48397;53.016;-2.260;2023-03-01T01:23:55;6.30;99.90
44671;DHT22;48397;53.016;-2.260;2023-03-01T01:26:31;6.20;99.90
44671;DHT22;48397;53.016;-2.260;2023-03-01T01:29:01;6.20;99.90
44671;DHT22;48397;53.016;-2.260;2023-03-01T01:31:30;6.20;99.90
44671;DHT22;48397;53.016;-2.260;2023-03-01T01:34:00;6.20;99.90
44671;DHT22;48397;53.016;-2.260;2023-03-01T01:36:28;6.10;99.90
44671;DHT22;48397;53.016;-2.260;2023-03-01T01:38:57;6.20;99.90
44671;DHT22;48397;53.016;-2.260;2023-03-01T01:41:26;6.10;99.90
44671;DHT22;48397;53.016;-2.260;2023-03-01T01:44:14;6.10;99.90
44671;DHT22;48397;53.016;-2.260;2023-03-01T01:47:01;6.10;99.90
44671;DHT22;48397;53.016;-2.260;2023-03-01T01:52:17;6.10;99.90
44671;DHT22;48397;53.016;-2.260;2023-03-01T01:55:05;6.10;99.90
44671;DHT22;48397;53.016;-2.260;2023-03-01T01:57:44;4.70;99.90
44671;DHT22;48397;53.016;-2.260;2023-03-01T02:00:18;6.10;99.90
44671;DHT22;48397;53.016;-2.260;2023-03-01T02:02:50;6.10;99.90
44671;DHT22;48397;53.016;-2.260;2023-03-01T02:05:40;6.00;99.90
44671;DHT22;48397;53.016;-2.260;2023-03-01T02:08:13;6.10;99.90
44671;DHT22;48397;53.016;-2.260;2023-03-01T02:10:44;6.10;99.90
44671;DHT22;48397;53.016;-2.260;2023-03-01T02:13:12;6.10;99.90
44671;DHT22;48397;53.016;-2.260;2023-03-01T02:15:41;6.10;99.90
44671;DHT22;48397;53.016;-2.260;2023-03-01T02:18:15;6.10;99.90
44671;DHT22;48397;53.016;-2.260;2023-03-01T02:23:24;6.10;99.90
44671;DHT22;48397;53.016;-2.260;2023-03-01T02:28:37;6.10;99.90
44671;DHT22;48397;53.016;-2.260;2023-03-01T02:31:08;6.10;99.90
44671;DHT22;48397;53.016;-2.260;2023-03-01T02:33:56;6.10;99.90
44671;DHT22;48397;53.016;-2.260;2023-03-01T02:36:29;6.10;99.90
44671;DHT22;48397;53.016;-2.260;2023-03-01T02:39:00;6.10;99.90
44671;DHT22;48397;53.016;-2.260;2023-03-01T02:41:31;6.10;99.90
44671;DHT22;48397;53.016;-2.260;2023-03-01T02:46:31;6.10;99.90
44671;DHT22;48397;53.016;-2.260;2023-03-01T02:49:01;6.00;99.90
44671;DHT22;48397;53.016;-2.260;2023-03-01T02:56:37;6.00;99.90
44671;DHT22;48397;53.016;-2.260;2023-03-01T02:59:05;8.40;99.90
44671;DHT22;48397;53.016;-2.260;2023-03-01T03:04:14;6.00;99.90
44671;DHT22;48397;53.016;-2.260;2023-03-01T03:06:49;6.00;99.90
44671;DHT22;48397;53.016;-2.260;2023-03-01T03:09:18;6.00;99.90
44671;DHT22;48397;53.016;-2.260;2023-03-01T03:11:47;6.00;99.90
44671;DHT22;48397;53.016;-2.260;2023-03-01T03:14:16;6.00;99.90
44671;DHT22;48397;53.016;-2.260;2023-03-01T03:16:49;5.90;99.90
44671;DHT22;48397;53.016;-2.260;2023-03-01T03:19:19;6.00;99.90
44671;DHT22;48397;53.016;-2.260;2023-03-01T03:21:47;6.50;99.90
44671;DHT22;48397;53.016;-2.260;2023-03-01T03:24:15;4.40;99.90
44671;DHT22;48397;53.016;-2.260;2023-03-01T03:26:42;5.90;99.90
44671;DHT22;48397;53.016;-2.260;2023-03-01T03:29:10;5.90;99.90
44671;DHT22;48397;53.016;-2.260;2023-03-01T03:31:38;5.90;99.90
44671;DHT22;48397;53.016;-2.260;2023-03-01T03:34:05;5.90;99.90
44671;DHT22;48397;53.016;-2.260;2023-03-01T03:36:33;5.90;99.90
44671;DHT22;48397;53.016;-2.260;2023-03-01T03:39:01;5.90;99.90
44671;DHT22;48397;53.016;-2.260;2023-03-01T03:41:28;5.90;99.90
44671;DHT22;48397;53.016;-2.260;2023-03-01T03:43:56;5.90;99.90
44671;DHT22;48397;53.016;-2.260;2023-03-01T03:46:24;5.80;99.90
44671;DHT22;48397;53.016;-2.260;2023-03-01T03:48:52;5.80;99.90
44671;DHT22;48397;53.016;-2.260;2023-03-01T03:51:20;5.90;99.90
44671;DHT22;48397;53.016;-2.260;2023-03-01T03:53:50;5.40;99.90
44671;DHT22;48397;53.016;-2.260;2023-03-01T03:56:18;5.70;99.90
44671;DHT22;48397;53.016;-2.260;2023-03-01T03:58:45;6.50;99.90
44671;DHT22;48397;53.016;-2.260;2023-03-01T04:01:13;5.80;99.90
44671;DHT22;48397;53.016;-2.260;2023-03-01T04:03:41;5.90;99.90
44671;DHT22;48397;53.016;-2.260;2023-03-01T04:06:14;5.80;99.90
44671;DHT22;48397;53.016;-2.260;2023-03-01T04:08:42;5.80;99.90
44671;DHT22;48397;53.016;-2.260;2023-03-01T04:11:09;5.80;99.90
44671;DHT22;48397;53.016;-2.260;2023-03-01T04:13:56;5.80;99.90
44671;DHT22;48397;53.016;-2.260;2023-03-01T04:16:25;5.90;99.90
44671;DHT22;48397;53.016;-2.260;2023-03-01T04:18:52;5.80;99.90
44671;DHT22;48397;53.016;-2.260;2023-03-01T04:21:21;5.80;99.90
44671;DHT22;48397;53.016;-2.260;2023-03-01T04:23:49;5.90;99.90
44671;DHT22;48397;53.016;-2.260;2023-03-01T04:26:21;5.90;99.90
44671;DHT22;48397;53.016;-2.260;2023-03-01T04:28:49;5.90;99.90
44671;DHT22;48397;53.016;-2.260;2023-03-01T04:31:19;6.00;99.90
44671;DHT22;48397;53.016;-2.260;2023-03-01T04:33:51;5.90;99.90
44671;DHT22;48397;53.016;-2.260;2023-03-01T04:36:22;5.90;99.90
44671;DHT22;48397;53.016;-2.260;2023-03-01T04:38:50;5.80;99.90
44671;DHT22;48397;53.016;-2.260;2023-03-01T04:41:23;5.70;99.90
44671;DHT22;48397;53.016;-2.260;2023-03-01T04:43:51;5.70;99.90
44671;DHT22;48397;53.016;-2.260;2023-03-01T04:46:20;5.70;99.90
44671;DHT22;48397;53.016;-2.260;2023-03-01T04:48:50;5.70;99.90
44671;DHT22;48397;53.016;-2.260;2023-03-01T04:51:17;5.70;99.90
44671;DHT22;48397;53.016;-2.260;2023-03-01T04:53:46;5.70;99.90
44671;DHT22;48397;53.016;-2.260;2023-03-01T04:56:14;5.70;99.90
44671;DHT22;48397;53.016;-2.260;2023-03-01T04:58:43;5.70;99.90
44671;DHT22;48397;53.016;-2.260;2023-03-01T05:01:13;5.70;99.90
44671;DHT22;48397;53.016;-2.260;2023-03-01T05:03:46;5.70;99.90
44671;DHT22;48397;53.016;-2.260;2023-03-01T05:06:15;5.60;99.90
44671;DHT22;48397;53.016;-2.260;2023-03-01T05:08:44;7.50;99.90
44671;DHT22;48397;53.016;-2.260;2023-03-01T05:11:12;5.60;99.90
44671;DHT22;48397;53.016;-2.260;2023-03-01T05:13:40;5.50;99.90
44671;DHT22;48397;53.016;-2.260;2023-03-01T05:16:10;5.40;99.90
44671;DHT22;48397;53.016;-2.260;2023-03-01T05:18:40;2.30;99.90
44671;DHT22;48397;53.016;-2.260;2023-03-01T05:21:11;5.20;99.90
44671;DHT22;48397;53.016;-2.260;2023-03-01T05:23:39;5.00;99.90
44671;DHT22;48397;53.016;-2.260;2023-03-01T05:26:08;4.90;99.90
44671;DHT22;48397;53.016;-2.260;2023-03-01T05:31:27;4.70;99.90
44671;DHT22;48397;53.016;-2.260;2023-03-01T05:36:24;4.40;99.90
44671;DHT22;48397;53.016;-2.260;2023-03-01T05:38:51;4.30;99.90
44671;DHT22;48397;53.016;-2.260;2023-03-01T05:41:20;4.20;99.90
44671;DHT22;48397;53.016;-2.260;2023-03-01T05:43:49;4.00;99.90
44671;DHT22;48397;53.016;-2.260;2023-03-01T05:46:17;3.90;99.90
44671;DHT22;48397;53.016;-2.260;2023-03-01T05:48:44;3.80;99.90
44671;DHT22;48397;53.016;-2.260;2023-03-01T05:51:12;3.80;99.90
44671;DHT22;48397;53.016;-2.260;2023-03-01T05:53:40;3.80;99.90
44671;DHT22;48397;53.016;-2.260;2023-03-01T05:56:08;3.80;99.90
44671;DHT22;48397;53.016;-2.260;2023-03-01T05:58:36;3.90;99.90
44671;DHT22;48397;53.016;-2.260;2023-03-01T06:01:10;4.10;99.90
44671;DHT22;48397;53.016;-2.260;2023-03-01T06:06:06;4.30;99.90
44671;DHT22;48397;53.016;-2.260;2023-03-01T06:11:01;4.40;99.90
44671;DHT22;48397;53.016;-2.260;2023-03-01T06:13:29;4.50;99.90
44671;DHT22;48397;53.016;-2.260;2023-03-01T06:15:57;4.60;99.90
44671;DHT22;48397;53.016;-2.260;2023-03-01T06:18:25;4.60;99.90
44671;DHT22;48397;53.016;-2.260;2023-03-01T06:20:54;4.70;99.90
44671;DHT22;48397;53.016;-2.260;2023-03-01T06:23:23;4.70;99.90
44671;DHT22;48397;53.016;-2.260;2023-03-01T06:25:53;4.80;99.90
44671;DHT22;48397;53.016;-2.260;2023-03-01T06:28:21;4.80;99.90
44671;DHT22;48397;53.016;-2.260;2023-03-01T06:30:50;4.90;99.90
44671;DHT22;48397;53.016;-2.260;2023-03-01T06:33:18;4.90;99.90
44671;DHT22;48397;53.016;-2.260;2023-03-01T06:35:48;4.90;99.90
44671;DHT22;48397;53.016;-2.260;2023-03-01T06:38:16;4.90;99.90
44671;DHT22;48397;53.016;-2.260;2023-03-01T06:40:52;4.90;99.90
44671;DHT22;48397;53.016;-2.260;2023-03-01T06:43:21;4.90;99.90
44671;DHT22;48397;53.016;-2.260;2023-03-01T06:45:50;4.90;99.90
44671;DHT22;48397;53.016;-2.260;2023-03-01T06:50:47;4.90;99.90
44671;DHT22;48397;53.016;-2.260;2023-03-01T06:53:15;5.00;99.90
44671;DHT22;48397;53.016;-2.260;2023-03-01T06:55:43;5.00;99.90
44671;DHT22;48397;53.016;-2.260;2023-03-01T07:00:41;5.00;99.90
44671;DHT22;48397;53.016;-2.260;2023-03-01T07:03:11;7.20;99.90
44671;DHT22;48397;53.016;-2.260;2023-03-01T07:05:38;5.00;99.90
44671;DHT22;48397;53.016;-2.260;2023-03-01T07:08:07;5.00;99.90
44671;DHT22;48397;53.016;-2.260;2023-03-01T07:10:35;5.00;99.90
44671;DHT22;48397;53.016;-2.260;2023-03-01T07:13:03;5.60;99.90
44671;DHT22;48397;53.016;-2.260;2023-03-01T07:15:30;4.90;99.90
44671;DHT22;48397;53.016;-2.260;2023-03-01T07:17:58;4.90;99.90
44671;DHT22;48397;53.016;-2.260;2023-03-01T07:20:26;5.00;99.90
44671;DHT22;48397;53.016;-2.260;2023-03-01T07:22:54;5.00;99.90
44671;DHT22;48397;53.016;-2.260;2023-03-01T07:27:51;5.10;99.90
44671;DHT22;48397;53.016;-2.260;2023-03-01T07:30:21;5.10;99.90
44671;DHT22;48397;53.016;-2.260;2023-03-01T07:32:49;5.10;99.90
44671;DHT22;48397;53.016;-2.260;2023-03-01T07:35:17;5.10;99.90
44671;DHT22;48397;53.016;-2.260;2023-03-01T07:37:45;5.10;99.90
44671;DHT22;48397;53.016;-2.260;2023-03-01T07:40:14;4.00;99.90
44671;DHT22;48397;53.016;-2.260;2023-03-01T07:42:42;5.20;99.90
44671;DHT22;48397;53.016;-2.260;2023-03-01T07:45:10;5.20;99.90
44671;DHT22;48397;53.016;-2.260;2023-03-01T07:47:39;5.30;99.90
44671;DHT22;48397;53.016;-2.260;2023-03-01T07:50:10;5.30;99.90
44671;DHT22;48397;53.016;-2.260;2023-03-01T07:52:39;5.30;99.90
44671;DHT22;48397;53.016;-2.260;2023-03-01T07:55:07;5.30;99.90
44671;DHT22;48397;53.016;-2.260;2023-03-01T07:57:36;5.30;99.90
44671;DHT22;48397;53.016;-2.260;2023-03-01T08:00:04;5.40;99.90
44671;DHT22;48397;53.016;-2.260;2023-03-01T08:05:10;5.40;99.90
44671;DHT22;48397;53.016;-2.260;2023-03-01T08:07:38;5.40;99.90
44671;DHT22;48397;53.016;-2.260;2023-03-01T08:10:06;5.50;99.90
44671;DHT22;48397;53.016;-2.260;2023-03-01T08:12:34;5.40;99.90
44671;DHT22;48397;53.016;-2.260;2023-03-01T08:15:01;5.40;99.90
44671;DHT22;48397;53.016;-2.260;2023-03-01T08:19:57;5.50;99.90
44671;DHT22;48397;53.016;-2.260;2023-03-01T08:22:25;5.50;99.90
44671;DHT22;48397;53.016;-2.260;2023-03-01T08:29:52;5.60;99.90
44671;DHT22;48397;53.016;-2.260;2023-03-01T08:32:19;5.60;99.90
44671;DHT22;48397;53.016;-2.260;2023-03-01T08:34:47;5.60;99.90
44671;DHT22;48397;53.016;-2.260;2023-03-01T08:37:15;5.60;99.90
44671;DHT22;48397;53.016;-2.260;2023-03-01T08:42:11;5.50;99.90
44671;DHT22;48397;53.016;-2.260;2023-03-01T08:44:39;5.50;99.90
44671;DHT22;48397;53.016;-2.260;2023-03-01T08:47:06;5.50;99.90
44671;DHT22;48397;53.016;-2.260;2023-03-01T08:49:34;5.60;99.90
44671;DHT22;48397;53.016;-2.260;2023-03-01T08:52:02;5.60;99.90
44671;DHT22;48397;53.016;-2.260;2023-03-01T08:54:30;5.60;99.90
44671;DHT22;48397;53.016;-2.260;2023-03-01T08:56:57;5.60;99.90
44671;DHT22;48397;53.016;-2.260;2023-03-01T08:59:26;5.70;99.90
44671;DHT22;48397;53.016;-2.260;2023-03-01T09:01:54;5.60;99.90
44671;DHT22;48397;53.016;-2.260;2023-03-01T09:04:22;5.70;99.90
44671;DHT22;48397;53.016;-2.260;2023-03-01T09:06:49;5.90;99.90
44671;DHT22;48397;53.016;-2.260;2023-03-01T09:09:17;5.90;99.90
44671;DHT22;48397;53.016;-2.260;2023-03-01T09:11:45;5.90;99.90
44671;DHT22;48397;53.016;-2.260;2023-03-01T09:14:14;5.90;99.90
44671;DHT22;48397;53.016;-2.260;2023-03-01T09:16:42;5.90;99.90
44671;DHT22;48397;53.016;-2.260;2023-03-01T09:19:09;5.90;99.90
44671;DHT22;48397;53.016;-2.260;2023-03-01T09:21:39;6.00;99.90
44671;DHT22;48397;53.016;-2.260;2023-03-01T09:24:13;6.10;99.90
44671;DHT22;48397;53.016;-2.260;2023-03-01T09:26:41;6.20;99.90
44671;DHT22;48397;53.016;-2.260;2023-03-01T09:29:09;6.20;99.90
44671;DHT22;48397;53.016;-2.260;2023-03-01T09:31:37;6.30;99.90
44671;DHT22;48397;53.016;-2.260;2023-03-01T09:34:05;6.40;99.90
44671;DHT22;48397;53.016;-2.260;2023-03-01T09:36:33;6.50;99.90
44671;DHT22;48397;53.016;-2.260;2023-03-01T09:39:02;6.50;99.90
44671;DHT22;48397;53.016;-2.260;2023-03-01T09:41:38;6.50;99.90
44671;DHT22;48397;53.016;-2.260;2023-03-01T09:44:18;6.60;99.90
44671;DHT22;48397;53.016;-2.260;2023-03-01T09:46:48;6.50;99.90
44671;DHT22;48397;53.016;-2.260;2023-03-01T09:49:22;6.60;99.90
44671;DHT22;48397;53.016;-2.260;2023-03-01T09:54:38;6.50;99.90
44671;DHT22;48397;53.016;-2.260;2023-03-01T09:57:17;6.60;99.90
44671;DHT22;48397;53.016;-2.260;2023-03-01T10:02:41;6.70;99.90
44671;DHT22;48397;53.016;-2.260;2023-03-01T10:10:34;6.90;99.90
44671;DHT22;48397;53.016;-2.260;2023-03-01T10:13:28;7.00;99.90
44671;DHT22;48397;53.016;-2.260;2023-03-01T10:16:14;7.30;99.90
44671;DHT22;48397;53.016;-2.260;2023-03-01T10:18:47;7.40;99.90
44671;DHT22;48397;53.016;-2.260;2023-03-01T10:21:20;7.50;99.90
44671;DHT22;48397;53.016;-2.260;2023-03-01T10:23:50;7.60;99.90
44671;DHT22;48397;53.016;-2.260;2023-03-01T10:26:38;7.60;99.90
44671;DHT22;48397;53.016;-2.260;2023-03-01T10:29:11;7.60;99.90
44671;DHT22;48397;53.016;-2.260;2023-03-01T10:31:50;7.70;99.90
44671;DHT22;48397;53.016;-2.260;2023-03-01T10:34:30;7.80;99.90
44671;DHT22;48397;53.016;-2.260;2023-03-01T10:37:14;7.80;99.90
44671;DHT22;48397;53.016;-2.260;2023-03-01T10:42:34;7.70;99.90
44671;DHT22;48397;53.016;-2.260;2023-03-01T10:47:43;8.00;99.90
44671;DHT22;48397;53.016;-2.260;2023-03-01T10:50:22;8.10;99.90
44671;DHT22;48397;53.016;-2.260;2023-03-01T10:53:01;8.20;99.90
44671;DHT22;48397;53.016;-2.260;2023-03-01T10:55:38;8.30;99.90
44671;DHT22;48397;53.016;-2.260;2023-03-01T10:58:08;8.30;99.90
44671;DHT22;48397;53.016;-2.260;2023-03-01T11:00:56;8.30;99.90
44671;DHT22;48397;53.016;-2.260;2023-03-01T11:03:30;10.90;99.90
44671;DHT22;48397;53.016;-2.260;2023-03-01T11:08:48;8.70;99.90
44671;DHT22;48397;53.016;-2.260;2023-03-01T11:13:53;8.80;99.90
44671;DHT22;48397;53.016;-2.260;2023-03-01T11:16:29;8.70;99.90
44671;DHT22;48397;53.016;-2.260;2023-03-01T11:19:26;8.70;99.90
44671;DHT22;48397;53.016;-2.260;2023-03-01T11:22:16;8.70;99.90
44671;DHT22;48397;53.016;-2.260;2023-03-01T11:24:48;8.70;99.90
44671;DHT22;48397;53.016;-2.260;2023-03-01T11:27:36;8.60;99.90
44671;DHT22;48397;53.016;-2.260;2023-03-01T11:30:38;8.70;99.90
44671;DHT22;48397;53.016;-2.260;2023-03-01T11:36:26;8.50;99.90
44671;DHT22;48397;53.016;-2.260;2023-03-01T11:38:48;8.50;99.90
44671;DHT22;48397;53.016;-2.260;2023-03-01T11:41:18;8.30;99.90
44671;DHT22;48397;53.016;-2.260;2023-03-01T12:08:40;8.80;99.90
44671;DHT22;48397;53.016;-2.260;2023-03-01T12:17:10;8.60;99.90
44671;DHT22;48397;53.016;-2.260;2023-03-01T12:26:29;8.30;99.90
44671;DHT22;48397;53.016;-2.260;2023-03-01T12:28:57;8.20;99.90
44671;DHT22;48397;53.016;-2.260;2023-03-01T12:31:41;8.20;99.90
44671;DHT22;48397;53.016;-2.260;2023-03-01T12:47:58;8.50;99.90
44671;DHT22;48397;53.016;-2.260;2023-03-01T12:50:42;8.60;99.90
44671;DHT22;48397;53.016;-2.260;2023-03-01T12:53:31;8.60;99.90
44671;DHT22;48397;53.016;-2.260;2023-03-01T12:56:05;8.70;99.90
44671;DHT22;48397;53.016;-2.260;2023-03-01T13:01:33;8.90;99.90
44671;DHT22;48397;53.016;-2.260;2023-03-01T13:09:23;9.00;99.90
44671;DHT22;48397;53.016;-2.260;2023-03-01T13:11:53;9.20;99.90
44671;DHT22;48397;53.016;-2.260;2023-03-01T13:16:50;9.30;99.90
44671;DHT22;48397;53.016;-2.260;2023-03-01T13:21:53;9.50;99.90
44671;DHT22;48397;53.016;-2.260;2023-03-01T13:32:30;9.50;99.90
44671;DHT22;48397;53.016;-2.260;2023-03-01T13:37:43;9.50;99.90
44671;DHT22;48397;53.016;-2.260;2023-03-01T13:42:52;8.00;99.90
44671;DHT22;48397;53.016;-2.260;2023-03-01T13:45:41;9.40;99.90
44671;DHT22;48397;53.016;-2.260;2023-03-01T13:48:16;9.30;99.90
44671;DHT22;48397;53.016;-2.260;2023-03-01T13:50:49;9.20;99.90
44671;DHT22;48397;53.016;-2.260;2023-03-01T13:53:20;9.20;99.90
44671;DHT22;48397;53.016;-2.260;2023-03-01T13:55:51;9.30;99.90
44671;DHT22;48397;53.016;-2.260;2023-03-01T14:01:02;9.20;99.90
44671;DHT22;48397;53.016;-2.260;2023-03-01T14:03:32;9.20;99.90
44671;DHT22;48397;53.016;-2.260;2023-03-01T14:08:49;9.10;99.90
44671;DHT22;48397;53.016;-2.260;2023-03-01T14:16:46;10.00;99.90
44671;DHT22;48397;53.016;-2.260;2023-03-01T14:19:18;10.10;99.90
44671;DHT22;48397;53.016;-2.260;2023-03-01T14:22:22;10.20;99.90
44671;DHT22;48397;53.016;-2.260;2023-03-01T14:25:00;10.20;99.90
44671;DHT22;48397;53.016;-2.260;2023-03-01T14:27:42;10.40;99.90
44671;DHT22;48397;53.016;-2.260;2023-03-01T14:30:23;10.30;99.90
44671;DHT22;48397;53.016;-2.260;2023-03-01T14:32:57;10.00;99.90
44671;DHT22;48397;53.016;-2.260;2023-03-01T14:35:33;9.70;99.90
44671;DHT22;48397;53.016;-2.260;2023-03-01T14:38:02;9.40;99.90
44671;DHT22;48397;53.016;-2.260;2023-03-01T14:40:33;9.30;99.90
44671;DHT22;48397;53.016;-2.260;2023-03-01T14:43:09;9.30;99.90
44671;DHT22;48397;53.016;-2.260;2023-03-01T14:45:38;9.20;99.90
44671;DHT22;48397;53.016;-2.260;2023-03-01T14:48:07;9.30;99.90
44671;DHT22;48397;53.016;-2.260;2023-03-01T14:50:40;9.20;99.90
44671;DHT22;48397;53.016;-2.260;2023-03-01T14:53:20;9.20;99.90
44671;DHT22;48397;53.016;-2.260;2023-03-01T14:55:52;7.70;99.90
44671;DHT22;48397;53.016;-2.260;2023-03-01T14:58:23;9.30;99.90
44671;DHT22;48397;53.016;-2.260;2023-03-01T15:00:57;9.40;99.90
44671;DHT22;48397;53.016;-2.260;2023-03-01T15:03:38;9.70;99.90
44671;DHT22;48397;53.016;-2.260;2023-03-01T15:06:08;9.90;99.90
44671;DHT22;48397;53.016;-2.260;2023-03-01T15:08:37;9.90;99.90
44671;DHT22;48397;53.016;-2.260;2023-03-01T15:13:41;9.50;99.90
44671;DHT22;48397;53.016;-2.260;2023-03-01T15:16:33;9.30;99.90
44671;DHT22;48397;53.016;-2.260;2023-03-01T15:19:05;9.20;99.90
44671;DHT22;48397;53.016;-2.260;2023-03-01T15:21:36;9.00;99.90
44671;DHT22;48397;53.016;-2.260;2023-03-01T15:26:41;8.90;99.90
44671;DHT22;48397;53.016;-2.260;2023-03-01T15:29:17;9.00;99.90
44671;DHT22;48397;53.016;-2.260;2023-03-01T15:32:00;8.80;99.90
44671;DHT22;48397;53.016;-2.260;2023-03-01T15:34:36;8.70;99.90
44671;DHT22;48397;53.016;-2.260;2023-03-01T15:37:32;8.80;99.90
44671;DHT22;48397;53.016;-2.260;2023-03-01T15:39:56;8.80;99.90
44671;DHT22;48397;53.016;-2.260;2023-03-01T15:45:28;8.80;99.90
44671;DHT22;48397;53.016;-2.260;2023-03-01T15:47:58;8.80;99.90
44671;DHT22;48397;53.016;-2.260;2023-03-01T15:50:35;8.80;99.90
44671;DHT22;48397;53.016;-2.260;2023-03-01T15:53:11;8.70;99.90
44671;DHT22;48397;53.016;-2.260;2023-03-01T15:55:40;8.70;99.90
44671;DHT22;48397;53.016;-2.260;2023-03-01T15:58:17;8.70;99.90
44671;DHT22;48397;53.016;-2.260;2023-03-01T16:00:46;8.60;99.90
44671;DHT22;48397;53.016;-2.260;2023-03-01T16:03:28;8.50;99.90
44671;DHT22;48397;53.016;-2.260;2023-03-01T16:05:56;8.50;99.90
44671;DHT22;48397;53.016;-2.260;2023-03-01T16:08:24;8.50;99.90
44671;DHT22;48397;53.016;-2.260;2023-03-01T16:10:51;8.50;99.90
44671;DHT22;48397;53.016;-2.260;2023-03-01T16:15:48;8.40;99.90
44671;DHT22;48397;53.016;-2.260;2023-03-01T16:20:44;8.10;99.90
44671;DHT22;48397;53.016;-2.260;2023-03-01T16:23:13;8.00;99.90
44671;DHT22;48397;53.016;-2.260;2023-03-01T16:25:44;7.80;99.90
44671;DHT22;48397;53.016;-2.260;2023-03-01T16:28:11;7.80;99.90
44671;DHT22;48397;53.016;-2.260;2023-03-01T16:30:39;7.80;99.90
44671;DHT22;48397;53.016;-2.260;2023-03-01T16:33:07;7.80;99.90
44671;DHT22;48397;53.016;-2.260;2023-03-01T16:40:52;7.70;99.90
44671;DHT22;48397;53.016;-2.260;2023-03-01T16:43:20;7.70;99.90
44671;DHT22;48397;53.016;-2.260;2023-03-01T16:45:47;7.70;99.90
44671;DHT22;48397;53.016;-2.260;2023-03-01T16:48:15;7.70;99.90
44671;DHT22;48397;53.016;-2.260;2023-03-01T16:50:43;7.60;99.90
44671;DHT22;48397;53.016;-2.260;2023-03-01T16:53:11;7.60;99.90
44671;DHT22;48397;53.016;-2.260;2023-03-01T16:58:12;7.60;99.90
44671;DHT22;48397;53.016;-2.260;2023-03-01T17:00:40;7.50;99.90
44671;DHT22;48397;53.016;-2.260;2023-03-01T17:03:08;7.50;99.90
44671;DHT22;48397;53.016;-2.260;2023-03-01T17:05:40;7.50;99.90
44671;DHT22;48397;53.016;-2.260;2023-03-01T17:08:07;7.50;99.90
44671;DHT22;48397;53.016;-2.260;2023-03-01T17:10:35;7.50;99.90
44671;DHT22;48397;53.016;-2.260;2023-03-01T17:13:02;7.40;99.90
44671;DHT22;48397;53.016;-2.260;2023-03-01T17:15:30;8.70;99.90
44671;DHT22;48397;53.016;-2.260;2023-03-01T17:17:58;7.30;99.90
44671;DHT22;48397;53.016;-2.260;2023-03-01T17:20:26;7.20;99.90
44671;DHT22;48397;53.016;-2.260;2023-03-01T17:22:54;7.10;99.90
44671;DHT22;48397;53.016;-2.260;2023-03-01T17:25:22;7.00;99.90
44671;DHT22;48397;53.016;-2.260;2023-03-01T17:27:50;6.90;99.90
44671;DHT22;48397;53.016;-2.260;2023-03-01T17:30:18;6.80;99.90
44671;DHT22;48397;53.016;-2.260;2023-03-01T17:32:45;6.70;99.90
44671;DHT22;48397;53.016;-2.260;2023-03-01T17:35:13;6.70;99.90
44671;DHT22;48397;53.016;-2.260;2023-03-01T17:37:41;6.60;99.90
44671;DHT22;48397;53.016;-2.260;2023-03-01T17:40:13;6.60;99.90
44671;DHT22;48397;53.016;-2.260;2023-03-01T17:42:40;6.50;99.90
44671;DHT22;48397;53.016;-2.260;2023-03-01T17:45:08;6.50;99.90
44671;DHT22;48397;53.016;-2.260;2023-03-01T17:47:36;6.50;99.90
44671;DHT22;48397;53.016;-2.260;2023-03-01T17:50:04;6.40;99.90
44671;DHT22;48397;53.016;-2.260;2023-03-01T17:55:00;6.40;99.90
44671;DHT22;48397;53.016;-2.260;2023-03-01T17:57:28;6.30;99.90
44671;DHT22;48397;53.016;-2.260;2023-03-01T17:59:56;6.40;99.90
44671;DHT22;48397;53.016;-2.260;2023-03-01T18:02:24;6.40;99.90
44671;DHT22;48397;53.016;-2.260;2023-03-01T18:04:56;6.40;99.90
44671;DHT22;48397;53.016;-2.260;2023-03-01T18:07:26;6.40;99.90
44671;DHT22;48397;53.016;-2.260;2023-03-01T18:09:54;6.40;99.90
44671;DHT22;48397;53.016;-2.260;2023-03-01T18:12:22;6.50;99.90
44671;DHT22;48397;53.016;-2.260;2023-03-01T18:14:50;6.50;99.90
44671;DHT22;48397;53.016;-2.260;2023-03-01T18:17:21;6.50;99.90
44671;DHT22;48397;53.016;-2.260;2023-03-01T18:19:50;6.50;99.90
44671;DHT22;48397;53.016;-2.260;2023-03-01T18:22:18;6.50;99.90
44671;DHT22;48397;53.016;-2.260;2023-03-01T18:24:49;6.40;99.90
44671;DHT22;48397;53.016;-2.260;2023-03-01T18:27:16;6.40;99.90
44671;DHT22;48397;53.016;-2.260;2023-03-01T18:29:44;6.40;99.90
44671;DHT22;48397;53.016;-2.260;2023-03-01T18:32:12;6.40;99.90
44671;DHT22;48397;53.016;-2.260;2023-03-01T18:34:40;6.40;99.90
44671;DHT22;48397;53.016;-2.260;2023-03-01T18:37:07;6.30;99.90
44671;DHT22;48397;53.016;-2.260;2023-03-01T18:39:36;6.40;99.90
44671;DHT22;48397;53.016;-2.260;2023-03-01T18:42:06;6.30;99.90
44671;DHT22;48397;53.016;-2.260;2023-03-01T18:44:34;6.30;99.90
44671;DHT22;48397;53.016;-2.260;2023-03-01T18:47:03;6.30;99.90
44671;DHT22;48397;53.016;-2.260;2023-03-01T18:49:31;6.30;99.90
44671;DHT22;48397;53.016;-2.260;2023-03-01T18:52:01;6.30;99.90
44671;DHT22;48397;53.016;-2.260;2023-03-01T18:54:28;6.30;99.90
44671;DHT22;48397;53.016;-2.260;2023-03-01T18:56:56;6.20;99.90
44671;DHT22;48397;53.016;-2.260;2023-03-01T18:59:23;6.20;99.90
44671;DHT22;48397;53.016;-2.260;2023-03-01T19:01:51;6.20;99.90